• Join FlightAware (Why Join?)
  • Login
  • US Flag 
12:30AM EST


 

Airport Tracker/Info


-or-


 

Live Flight TrackerFlight Track Log ✈ FLG3862 ✈ 18-Apr-2013 ✈ KBTV - KDTW

Flight Track Log - Related Links

Times and Time Zones

All times are in EDT time to prevent confusion due to time zone crossing. See the FLG3862 flight status page for this flight to view local times or setup timezone preferences in your user account.

Time Position Orientation Groundspeed Altitude Reporting Facility
EDT Latitude Longitude Course Direction KTS MPH feet Rate Location/Type
01:03PM 44.3814 -73.6316 253° West  Level FlightAware Approximate
01:03PM 44.3900 -73.2069 260° West 245 282 8,100  Level Boston Center
01:04PM 44.3593 -73.7518 259° West  Level FlightAware Approximate
01:04PM 44.3769 -73.2969 259° West 245 282 10,600  Level Boston Center
01:05PM 44.3419 -73.8736 259° West  Level FlightAware Approximate
01:05PM 44.3614 -73.4011 258° West 262 302 11,800  Level Boston Center
01:06PM 44.3221 -73.9946 256° West  Level FlightAware Approximate
01:06PM 44.3458 -73.5142 259° West 290 334 13,000  Level Boston Center
01:07PM 44.3000 -74.1148 256° West  Level FlightAware Approximate
01:07PM 44.3281 -73.6386 259° West 320 368 14,200  Level Boston Center
01:08PM 44.3144 -73.7400 259° West 333 383 15,200 1,140 Climbing Boston Center
01:09PM 44.2939 -73.8817 259° West 338 389 16,500 1,260 Climbing Boston Center
01:10PM 44.2736 -74.0086 257° West 338 389 17,700 960 Climbing Boston Center
01:11PM 44.2572 -74.1328 260° West 333 383 18,500 900 Climbing Boston Center
01:12PM 44.2364 -74.2628 257° West 333 383 19,500 960 Climbing Boston Center
01:13PM 44.2156 -74.3953 258° West 338 389 20,500 960 Climbing Boston Center
01:14PM 44.1967 -74.5250 259° West 344 396 21,500 900 Climbing Boston Center
01:15PM 44.1775 -74.6547 258° West 344 396 22,300 720 Climbing Boston Center
01:16PM 44.1583 -74.7869 259° West 349 402 23,000 600 Climbing Boston Center
01:17PM 44.1386 -74.9222 259° West 360 414 23,500 480 Climbing Boston Center
01:18PM 44.1169 -75.0603 258° West 360 414 24,000 480 Climbing Boston Center
01:19PM 44.0947 -75.2008 258° West 366 421 24,500 480 Climbing Boston Center
01:20PM 44.0728 -75.3386 258° West 371 427 25,000 480 Climbing Boston Center
01:21PM 44.0503 -75.4761 257° West 371 427 25,500 480 Climbing Boston Center
01:22PM 44.0297 -75.6194 259° West 371 427 26,000 480 Climbing Boston Center
01:23PM 44.0050 -75.7597 256° West 376 433 26,500 480 Climbing Boston Center
01:24PM 43.9822 -75.8997 257° West 376 433 27,000 420 Climbing Boston Center
01:25PM 43.9614 -76.0342 258° West 371 427 27,500 480 Climbing Boston Center
01:26PM 43.9497 -76.2039 265° West 371 427 28,100 480 Climbing Boston Center
01:27PM 43.9500 -76.3164 270° West 365 420 28,500 480 Climbing Boston Center
01:28PM 43.9439 -76.4919 267° West 365 420 29,100 480 Climbing Boston Center
01:30PM 43.9333 -76.7333 267° West 370 426 30,000 300 Climbing Toronto Center
01:31PM 43.9167 -76.8833 261° West 380 437 30,000  Level Toronto Center
01:32PM 43.9167 -77.0333 270° West 390 449 30,000  Level Toronto Center
01:33PM 43.9000 -77.1833 261° West 400 460 30,000  Level Toronto Center
01:34PM 43.9000 -77.3333 270° West 400 460 30,000  Level Toronto Center
01:35PM 43.9000 -77.5000 270° West 410 472 30,000  Level Toronto Center
01:36PM 43.9000 -77.6500 270° West 410 472 30,000  Level Toronto Center
01:37PM 43.8667 -77.8000 253° West 400 460 30,000  Level Toronto Center
01:38PM 43.8333 -77.9500 253° West 400 460 30,000  Level Toronto Center
01:39PM 43.8000 -78.1000 253° West 400 460 30,000  Level Toronto Center
01:40PM 43.7667 -78.2500 253° West 400 460 30,000  Level Toronto Center
01:41PM 43.7333 -78.3833 251° West 400 460 30,000  Level Toronto Center
01:42PM 43.7167 -78.5500 262° West 400 460 30,000  Level Toronto Center
01:43PM 43.6833 -78.6833 251° West 410 472 30,000  Level Toronto Center
01:44PM 43.6333 -78.8333 245° Southwest 410 472 30,000  Level Toronto Center
01:45PM 43.5667 -78.9667 235° Southwest 410 472 30,000  Level Toronto Center
01:46PM 43.5000 -79.1000 235° Southwest 410 472 30,000  Level Toronto Center
01:47PM 43.4500 -79.2167 239° Southwest 410 472 30,000  Level Toronto Center
01:48PM 43.3833 -79.3833 241° Southwest 410 472 30,000 -180 Level Toronto Center
01:49PM 43.3167 -79.5000 232° Southwest 420 483 29,700 -480 Descending Toronto Center
01:50PM 43.2667 -79.6500 245° Southwest 430 495 29,100 -600 Descending Toronto Center
01:51PM 43.2333 -79.8167 255° West 440 506 28,600 -540 Descending Toronto Center
01:52PM 43.2000 -79.9833 255° West 440 506 28,100 -540 Descending Toronto Center
01:53PM 43.1833 -80.1333 261° West 430 495 27,600 -540 Descending Toronto Center
01:54PM 43.1500 -80.2667 251° West 390 449 27,100 -660 Descending Toronto Center
01:55PM 43.1167 -80.4167 253° West 360 414 26,300 -840 Descending Toronto Center
01:56PM 43.0833 -80.5167 245° Southwest 360 414 25,500 -840 Descending Toronto Center
01:57PM 43.0500 -80.6667 253° West 350 403 24,700 -780 Descending Toronto Center
01:58PM 43.0167 -80.7667 246° West 350 403 24,000 -840 Descending Toronto Center
01:59PM 42.9667 -80.9167 246° West 350 403 23,100 -540 Descending Toronto Center
02:00PM 42.9333 -81.0167 246° West 340 391 23,000 -60 Descending Toronto Center
02:01PM 42.9000 -81.1333 249° West 340 391 23,000  Level Toronto Center
02:02PM 42.8667 -81.2667 251° West 350 403 23,000  Level Toronto Center
02:03PM 42.8333 -81.3833 249° West 350 403 23,000 -360 Level Toronto Center
02:04PM 42.8000 -81.5167 251° West 350 403 22,300 -720 Descending Toronto Center
02:05PM 42.7667 -81.6333 249° West 320 368 21,600 -780 Descending Toronto Center
02:06PM 42.7500 -81.7167 255° West 290 334 20,800 -840 Descending Toronto Center
02:07PM 42.7167 -81.8333 249° West 290 334 20,000 -660 Descending Toronto Center
02:08PM 42.6856 -81.9475 250° West 292 336 19,500 -720 Descending Cleveland Center
02:09PM 42.6572 -82.0456 249° West 292 336 18,600 -1,080 Descending Cleveland Center
02:10PM 42.6267 -82.1464 248° West 292 336 17,400 -1,200 Descending Cleveland Center
02:11PM 42.5983 -82.2417 248° West 287 330 16,200 -1,200 Descending Cleveland Center
02:11PM 42.5936 -82.2697 257° West 266 306 15,900 -1,440 Descending Cleveland Center
02:12PM 42.5719 -82.3311 244° Southwest 281 323 14,800 -1,500 Descending Cleveland Center
02:12PM 42.5608 -82.3789 252° West 257 296 14,100 -1,440 Descending Cleveland Center
02:13PM 42.5433 -82.4206 240° Southwest 269 310 13,400 -1,320 Descending Cleveland Center
02:13PM 42.5322 -82.4681 252° West 249 287 12,800 -1,200 Descending Cleveland Center
02:14PM 42.5192 -82.5072 246° West 264 304 12,200 -720 Descending Cleveland Center
02:14PM 42.5081 -82.5519 251° West 239 275 12,100 -300 Descending Cleveland Center
02:15PM 42.4886 -82.5881 234° Southwest 254 292 11,900 -720 Descending Cleveland Center
02:15PM 42.4733 -82.6269 242° Southwest 241 277 11,400 -1,200 Descending Cleveland Center
02:16PM 42.4561 -82.6600 235° Southwest 242 278 10,700 -1,140 Descending Cleveland Center
02:16PM 42.4367 -82.6989 236° Southwest 238 274 10,300 -840 Descending Cleveland Center
02:17PM 42.4172 -82.7347 234° Southwest 242 278 9,900 -1,200 Descending Cleveland Center
02:17PM 42.3975 -82.7792 239° Southwest 225 259 9,100 2,100 Descending Cleveland Center
02:18PM 42.3847 -82.8011 232° Southwest 237 273 12,000 -1,020 Climbing Cleveland Center
02:18PM 42.3692 -82.8428 243° Southwest 204 235 8,100 -4,020 Descending Cleveland Center
02:19PM 42.3583 -82.8619 233° Southwest 216 249 8,000  Descending Cleveland Center
02:19PM 42.3472 -82.8953 246° West 138 159 8,100  Climbing Cleveland Center
02:20PM 42.3386 -82.9119 235° Southwest 181 208 8,000  Descending Cleveland Center
02:20PM 42.3256 -82.9422 240° Southwest 143 165 8,100  Climbing Cleveland Center
02:21PM 42.3189 -82.9589 242° Southwest 159 183 8,000 -240 Descending Cleveland Center
02:21PM 42.3058 -82.9922 242° Southwest 146 168 7,900 -480 Descending Cleveland Center
02:22PM 42.3131 -83.0458 280° West 187 215 7,200 -420 Descending Cleveland Center
02:23PM 42.3819 -83.0344 North 274 315 7,100 -60 Descending Cleveland Center
02:24PM 42.4475 -82.9947 24° Northeast 259 298 7,100  Level Cleveland Center
02:25PM 42.5128 -82.9578 23° Northeast 266 306 7,100  Level Cleveland Center
02:26PM 42.5536 -82.9989 323° Northwest 181 208 7,100  Level Cleveland Center
02:27PM 42.5483 -83.0464 261° West 125 144 7,100  Level Cleveland Center
02:29PM 42.5267 -83.0850 233° Southwest 119 137 7,100  Level Cleveland Center